Terminal Aerodrome Forecast
Issued by NWS North Platte, NE

Home | Current Version | Previous Version | Text Only | Print | Product List | Glossary On
Versions: 1 2 3 4 5 6 7 8 9 10 11 12
000
FTUS43 KLBF 201128
TAFLBF
TAF
KLBF 201128Z 2012/2112 17012KT P6SM BKN250 WS015/20040KT
     FM201400 17013KT P6SM BKN250
     FM201800 16016G24KT P6SM BKN250
     FM210000 15010KT P6SM SCT250
     FM210400 15012KT P6SM SCT250 WS015/19045KT
     FM210900 29013G20KT P6SM SCT200=

USA.gov is the U.S. government's official web portal to all federal, state and local government web resources and services.